Time,TemperatureF,DewpointF,PressureIn,WindDirection,WindDirectionDegrees,WindSpeedMPH,WindSpeedGustMPH,Humidity,HourlyPrecipIn,Conditions,Clouds,dailyrainin,SolarRadiationWatts/m^2,SoftwareType,DateUTC
2013-03-20 00:02:00,-6.0,-12.0,-100.00,NNE,17,2.0,4.0,75,0.00,,,0.02,0.000000,,2013-03-20 06:02:00,
2013-03-20 00:12:00,-6.0,-12.0,-100.00,NNE,17,2.0,4.0,75,0.00,,,0.02,0.000000,,2013-03-20 06:12:00,
2013-03-20 00:22:00,-6.0,-12.0,-100.00,NNE,17,2.0,4.0,75,0.00,,,0.02,0.000000,,2013-03-20 06:22:00,
2013-03-20 00:32:00,-6.0,-12.0,-100.00,NNE,17,2.0,4.0,75,0.00,,,0.02,0.000000,,2013-03-20 06:32:00,
2013-03-20 01:02:00,-7.0,-13.0,-100.00,NE,36,1.0,5.0,74,0.00,,,0.02,0.000000,,2013-03-20 07:02:00,
2013-03-20 01:12:00,-7.0,-13.0,-100.00,NE,36,1.0,5.0,74,0.00,,,0.02,0.000000,,2013-03-20 07:12:00,
2013-03-20 01:22:00,-7.0,-13.0,-100.00,NE,36,1.0,5.0,74,0.00,,,0.02,0.000000,,2013-03-20 07:22:00,
2013-03-20 01:32:00,-7.0,-13.0,-100.00,NE,36,1.0,5.0,74,0.00,,,0.02,0.000000,,2013-03-20 07:32:00,
2013-03-20 02:02:00,-1.0,-6.0,-100.00,NNE,15,2.0,6.0,78,0.00,,,0.02,0.000000,,2013-03-20 08:02:00,
2013-03-20 02:12:00,-1.0,-6.0,-100.00,NNE,15,2.0,6.0,78,0.00,,,0.02,0.000000,,2013-03-20 08:12:00,
2013-03-20 02:22:00,-1.0,-6.0,-100.00,NNE,15,2.0,6.0,78,0.00,,,0.02,0.000000,,2013-03-20 08:22:00,
2013-03-20 02:32:00,-1.0,-6.0,-100.00,NNE,15,2.0,6.0,78,0.00,,,0.02,0.000000,,2013-03-20 08:32:00,
2013-03-20 03:02:00,2.0,-3.0,-100.00,East,79,0.0,6.0,78,0.00,,,0.02,0.000000,,2013-03-20 09:02:00,
2013-03-20 03:12:00,2.0,-3.0,-100.00,East,79,0.0,6.0,78,0.00,,,0.02,0.000000,,2013-03-20 09:12:00,
2013-03-20 03:22:00,2.0,-3.0,-100.00,East,79,0.0,6.0,78,0.00,,,0.02,0.000000,,2013-03-20 09:22:00,
2013-03-20 03:33:00,2.0,-3.0,-100.00,East,79,0.0,6.0,78,0.00,,,0.02,0.000000,,2013-03-20 09:33:00,
2013-03-20 04:03:00,2.0,-4.0,-100.00,NNE,21,2.0,4.0,77,0.00,,,0.02,0.000000,,2013-03-20 10:03:00,
2013-03-20 04:12:00,2.0,-4.0,-100.00,NNE,21,2.0,4.0,77,0.00,,,0.02,0.000000,,2013-03-20 10:12:00,
2013-03-20 04:23:00,2.0,-4.0,-100.00,NNE,21,2.0,4.0,77,0.00,,,0.02,0.000000,,2013-03-20 10:23:00,
2013-03-20 04:32:00,2.0,-4.0,-100.00,NNE,21,2.0,4.0,77,0.00,,,0.02,0.000000,,2013-03-20 10:32:00,
2013-03-20 05:03:00,-2.0,-8.0,-100.00,North,5,1.0,4.0,74,0.00,,,0.02,0.000000,,2013-03-20 11:03:00,
2013-03-20 05:12:00,-2.0,-8.0,-100.00,North,5,1.0,4.0,74,0.00,,,0.02,0.000000,,2013-03-20 11:12:00,
2013-03-20 05:22:00,-2.0,-8.0,-100.00,North,5,1.0,4.0,74,0.00,,,0.02,0.000000,,2013-03-20 11:22:00,
2013-03-20 05:32:00,-2.0,-8.0,-100.00,North,5,1.0,4.0,74,0.00,,,0.02,0.000000,,2013-03-20 11:32:00,
2013-03-20 06:02:00,-4.0,-10.0,-100.00,NNE,14,2.0,3.0,74,0.00,,,0.02,0.000000,,2013-03-20 12:02:00,
2013-03-20 06:12:00,-4.0,-10.0,-100.00,NNE,14,2.0,3.0,74,0.00,,,0.02,0.000000,,2013-03-20 12:12:00,
2013-03-20 06:22:00,-4.0,-10.0,-100.00,NNE,14,2.0,3.0,74,0.00,,,0.02,0.000000,,2013-03-20 12:22:00,
2013-03-20 06:32:00,-4.0,-10.0,-100.00,NNE,14,2.0,3.0,74,0.00,,,0.02,0.000000,,2013-03-20 12:32:00,
2013-03-20 07:03:00,-5.0,-11.0,-100.00,NNE,20,1.0,4.0,73,0.00,,,0.02,0.000000,,2013-03-20 13:03:00,
2013-03-20 07:12:00,-5.0,-11.0,-100.00,NNE,20,1.0,4.0,73,0.00,,,0.02,0.000000,,2013-03-20 13:12:00,
2013-03-20 07:22:00,-5.0,-11.0,-100.00,NNE,20,1.0,4.0,73,0.00,,,0.02,0.000000,,2013-03-20 13:22:00,
2013-03-20 07:32:00,-5.0,-11.0,-100.00,NNE,20,1.0,4.0,73,0.00,,,0.02,0.000000,,2013-03-20 13:32:00,
2013-03-20 08:03:00,-3.0,-9.0,-100.00,NNE,25,2.0,4.0,74,0.00,,,0.02,7.000000,,2013-03-20 14:03:00,
2013-03-20 08:12:00,-3.0,-9.0,-100.00,NNE,25,2.0,4.0,74,0.00,,,0.02,7.000000,,2013-03-20 14:12:00,
2013-03-20 08:23:00,-3.0,-9.0,-100.00,NNE,25,2.0,4.0,74,0.00,,,0.02,7.000000,,2013-03-20 14:23:00,
2013-03-20 08:33:00,-3.0,-9.0,-100.00,NNE,25,2.0,4.0,74,0.00,,,0.02,7.000000,,2013-03-20 14:33:00,
2013-03-20 09:02:00,12.0,6.0,-100.00,NE,43,0.0,4.0,77,0.00,,,0.02,148.000000,,2013-03-20 15:02:00,
2013-03-20 09:12:00,12.0,6.0,-100.00,NE,43,0.0,4.0,77,0.00,,,0.02,148.000000,,2013-03-20 15:12:00,
2013-03-20 09:22:00,12.0,6.0,-100.00,NE,43,0.0,4.0,77,0.00,,,0.02,148.000000,,2013-03-20 15:22:00,
2013-03-20 09:33:00,12.0,6.0,-100.00,NE,43,0.0,4.0,77,0.00,,,0.02,148.000000,,2013-03-20 15:33:00,
2013-03-20 10:03:00,23.0,10.0,-100.00,South,184,3.0,5.0,58,0.00,,,0.02,406.000000,,2013-03-20 16:03:00,
2013-03-20 10:12:00,23.0,10.0,-100.00,South,184,3.0,5.0,58,0.00,,,0.02,406.000000,,2013-03-20 16:12:00,
2013-03-20 10:23:00,23.0,10.0,-100.00,South,184,3.0,5.0,58,0.00,,,0.02,406.000000,,2013-03-20 16:23:00,
2013-03-20 10:32:00,23.0,10.0,-100.00,South,184,3.0,5.0,58,0.00,,,0.02,406.000000,,2013-03-20 16:32:00,
2013-03-20 11:03:00,29.0,10.0,-100.00,SE,137,5.0,7.0,45,0.02,,,0.03,605.000000,,2013-03-20 17:03:00,
2013-03-20 11:12:00,29.0,10.0,-100.00,SE,137,5.0,7.0,45,0.02,,,0.03,605.000000,,2013-03-20 17:12:00,
2013-03-20 11:22:00,29.0,10.0,-100.00,SE,137,5.0,7.0,45,0.02,,,0.03,605.000000,,2013-03-20 17:22:00,
2013-03-20 11:32:00,29.0,10.0,-100.00,SE,137,5.0,7.0,45,0.02,,,0.03,605.000000,,2013-03-20 17:32:00,
2013-03-20 12:02:00,34.0,11.0,-100.00,South,175,5.0,8.0,37,0.02,,,0.05,716.000000,,2013-03-20 18:02:00,
2013-03-20 12:12:00,34.0,11.0,-100.00,South,175,5.0,8.0,37,0.02,,,0.05,716.000000,,2013-03-20 18:12:00,
2013-03-20 12:22:00,34.0,11.0,-100.00,South,175,5.0,8.0,37,0.02,,,0.05,716.000000,,2013-03-20 18:22:00,
2013-03-20 12:33:00,34.0,11.0,-100.00,South,175,5.0,8.0,37,0.02,,,0.05,716.000000,,2013-03-20 18:33:00,
2013-03-20 13:02:00,36.0,4.0,-100.00,SE,141,6.0,11.0,25,0.04,,,0.09,808.000000,,2013-03-20 19:02:00,
2013-03-20 13:12:00,36.0,4.0,-100.00,SE,141,6.0,11.0,25,0.04,,,0.09,808.000000,,2013-03-20 19:12:00,
2013-03-20 13:22:00,36.0,4.0,-100.00,SE,141,6.0,11.0,25,0.04,,,0.09,808.000000,,2013-03-20 19:22:00,
2013-03-20 13:32:00,36.0,4.0,-100.00,SE,141,6.0,11.0,25,0.04,,,0.09,808.000000,,2013-03-20 19:32:00,
2013-03-20 14:02:00,37.0,0.0,-100.00,SSE,162,7.0,14.0,20,0.07,,,0.15,812.000000,,2013-03-20 20:02:00,
2013-03-20 14:13:00,37.0,0.0,-100.00,SSE,162,7.0,14.0,20,0.07,,,0.15,812.000000,,2013-03-20 20:13:00,
2013-03-20 14:22:00,37.0,0.0,-100.00,SSE,162,7.0,14.0,20,0.07,,,0.15,812.000000,,2013-03-20 20:22:00,
2013-03-20 14:32:00,37.0,0.0,-100.00,SSE,162,7.0,14.0,20,0.07,,,0.15,812.000000,,2013-03-20 20:32:00,
2013-03-20 15:02:00,34.0,4.0,-100.00,SSE,165,6.0,14.0,28,0.03,,,0.18,440.000000,,2013-03-20 21:02:00,
2013-03-20 15:12:00,34.0,4.0,-100.00,SSE,165,6.0,14.0,28,0.03,,,0.18,440.000000,,2013-03-20 21:12:00,
2013-03-20 15:22:00,34.0,4.0,-100.00,SSE,165,6.0,14.0,28,0.03,,,0.18,440.000000,,2013-03-20 21:22:00,
2013-03-20 15:33:00,34.0,4.0,-100.00,SSE,165,6.0,14.0,28,0.03,,,0.18,440.000000,,2013-03-20 21:33:00,
2013-03-20 16:03:00,37.0,10.0,-100.00,SSE,155,7.0,13.0,32,0.03,,,0.21,549.000000,,2013-03-20 22:03:00,
2013-03-20 16:12:00,37.0,10.0,-100.00,SSE,155,7.0,13.0,32,0.03,,,0.21,549.000000,,2013-03-20 22:12:00,
2013-03-20 16:23:00,37.0,10.0,-100.00,SSE,155,7.0,13.0,32,0.03,,,0.21,549.000000,,2013-03-20 22:23:00,
2013-03-20 16:33:00,37.0,10.0,-100.00,SSE,155,7.0,13.0,32,0.03,,,0.21,549.000000,,2013-03-20 22:33:00,
2013-03-20 17:02:00,35.0,12.0,-100.00,SSE,151,5.0,14.0,38,0.02,,,0.23,316.000000,,2013-03-20 23:02:00,
2013-03-20 17:12:00,35.0,12.0,-100.00,SSE,151,5.0,14.0,38,0.02,,,0.23,316.000000,,2013-03-20 23:12:00,
2013-03-20 17:22:00,35.0,12.0,-100.00,SSE,151,5.0,14.0,38,0.02,,,0.23,316.000000,,2013-03-20 23:22:00,
2013-03-20 17:32:00,35.0,12.0,-100.00,SSE,151,5.0,14.0,38,0.02,,,0.23,316.000000,,2013-03-20 23:32:00,
2013-03-20 18:02:00,33.0,13.0,-100.00,SE,139,6.0,12.0,43,0.01,,,0.24,165.000000,,2013-03-21 00:02:00,
2013-03-20 18:12:00,33.0,13.0,-100.00,SE,139,6.0,12.0,43,0.01,,,0.24,165.000000,,2013-03-21 00:12:00,
2013-03-20 18:23:00,33.0,13.0,-100.00,SE,139,6.0,12.0,43,0.01,,,0.24,165.000000,,2013-03-21 00:23:00,
2013-03-20 18:32:00,33.0,13.0,-100.00,SE,139,6.0,12.0,43,0.01,,,0.24,165.000000,,2013-03-21 00:32:00,
2013-03-20 19:02:00,32.0,14.0,-100.00,SE,129,7.0,13.0,46,0.00,,,0.24,47.000000,,2013-03-21 01:02:00,
2013-03-20 19:12:00,32.0,14.0,-100.00,SE,129,7.0,13.0,46,0.00,,,0.24,47.000000,,2013-03-21 01:12:00,
2013-03-20 19:22:00,32.0,14.0,-100.00,SE,129,7.0,13.0,46,0.00,,,0.24,47.000000,,2013-03-21 01:22:00,
2013-03-20 19:32:00,32.0,14.0,-100.00,SE,129,7.0,13.0,46,0.00,,,0.24,47.000000,,2013-03-21 01:32:00,
2013-03-20 20:02:00,31.0,19.0,-100.00,East,95,4.0,14.0,60,0.00,,,0.24,16.000000,,2013-03-21 02:02:00,
2013-03-20 20:12:00,31.0,19.0,-100.00,East,95,4.0,14.0,60,0.00,,,0.24,16.000000,,2013-03-21 02:12:00,
2013-03-20 20:22:00,31.0,19.0,-100.00,East,95,4.0,14.0,60,0.00,,,0.24,16.000000,,2013-03-21 02:22:00,
2013-03-20 20:32:00,31.0,19.0,-100.00,East,95,4.0,14.0,60,0.00,,,0.24,16.000000,,2013-03-21 02:32:00,
2013-03-20 21:02:00,30.0,15.0,-100.00,East,101,5.0,13.0,53,0.00,,,0.24,0.000000,,2013-03-21 03:02:00,
2013-03-20 21:12:00,30.0,15.0,-100.00,East,101,5.0,13.0,53,0.00,,,0.24,0.000000,,2013-03-21 03:12:00,
2013-03-20 21:22:00,30.0,15.0,-100.00,East,101,5.0,13.0,53,0.00,,,0.24,0.000000,,2013-03-21 03:22:00,
2013-03-20 21:33:00,30.0,15.0,-100.00,East,101,5.0,13.0,53,0.00,,,0.24,0.000000,,2013-03-21 03:33:00,
2013-03-20 22:03:00,29.0,14.0,-100.00,ESE,105,5.0,13.0,54,0.00,,,0.24,0.000000,,2013-03-21 04:03:00,
2013-03-20 22:13:00,29.0,14.0,-100.00,ESE,105,5.0,13.0,54,0.00,,,0.24,0.000000,,2013-03-21 04:13:00,
2013-03-20 22:23:00,29.0,14.0,-100.00,ESE,105,5.0,13.0,54,0.00,,,0.24,0.000000,,2013-03-21 04:23:00,
2013-03-20 22:33:00,29.0,14.0,-100.00,ESE,105,5.0,13.0,54,0.00,,,0.24,0.000000,,2013-03-21 04:33:00,
2013-03-20 23:03:00,29.0,15.0,-100.00,ESE,114,6.0,13.0,55,0.00,,,0.24,0.000000,,2013-03-21 05:03:00,
2013-03-20 23:12:00,29.0,15.0,-100.00,ESE,114,6.0,13.0,55,0.00,,,0.24,0.000000,,2013-03-21 05:12:00,
2013-03-20 23:22:00,29.0,15.0,-100.00,ESE,114,6.0,13.0,55,0.00,,,0.24,0.000000,,2013-03-21 05:22:00,
2013-03-20 23:32:00,29.0,15.0,-100.00,ESE,114,6.0,13.0,55,0.00,,,0.24,0.000000,,2013-03-21 05:32:00,